createdAt,value
2016-11-10T00:00:20.106Z,0
2016-11-10T00:01:20.072Z,0
2016-11-10T00:02:20.057Z,0
2016-11-10T00:03:20.016Z,0
2016-11-10T00:04:20.016Z,0
2016-11-10T00:05:19.975Z,0
2016-11-10T00:06:19.958Z,0
2016-11-10T00:07:19.916Z,0
2016-11-10T00:08:19.922Z,0
2016-11-10T00:09:19.878Z,0
2016-11-10T00:10:21.569Z,0
2016-11-10T00:11:19.860Z,0
2016-11-10T00:12:19.811Z,0
2016-11-10T00:13:19.776Z,0
2016-11-10T00:14:19.763Z,0
2016-11-10T00:15:19.745Z,0
2016-11-10T00:16:19.708Z,0
2016-11-10T00:17:19.690Z,0
2016-11-10T00:18:19.673Z,0
2016-11-10T00:19:19.630Z,0
2016-11-10T00:20:19.610Z,0
2016-11-10T00:21:19.598Z,0
2016-11-10T00:22:19.584Z,0
2016-11-10T00:23:19.539Z,0
2016-11-10T00:24:19.527Z,0
2016-11-10T00:25:19.505Z,0
2016-11-10T00:26:19.473Z,0
2016-11-10T00:27:19.439Z,0
2016-11-10T00:28:19.430Z,0
2016-11-10T00:29:19.403Z,0
2016-11-10T00:30:19.389Z,0
2016-11-10T00:31:19.364Z,0
2016-11-10T00:32:19.672Z,0
2016-11-10T00:33:19.310Z,0
2016-11-10T00:34:19.273Z,0
2016-11-10T00:35:19.282Z,0
2016-11-10T00:36:19.233Z,0
2016-11-10T00:37:19.207Z,0
2016-11-10T00:38:19.171Z,0
2016-11-10T00:39:19.145Z,0
2016-11-10T00:40:19.176Z,0
2016-11-10T00:41:19.118Z,0
2016-11-10T00:42:19.105Z,0
2016-11-10T00:43:19.077Z,0
2016-11-10T00:44:19.059Z,0
2016-11-10T00:45:19.008Z,0
2016-11-10T00:46:18.997Z,0
2016-11-10T00:47:19.334Z,0
2016-11-10T00:48:18.956Z,0
2016-11-10T00:49:18.915Z,0
2016-11-10T00:50:18.903Z,0
2016-11-10T00:51:18.877Z,0
2016-11-10T00:52:18.869Z,0
2016-11-10T00:53:18.847Z,0
2016-11-10T00:54:18.828Z,0
2016-11-10T00:55:18.816Z,0
2016-11-10T00:56:18.789Z,0
2016-11-10T00:57:18.781Z,0
2016-11-10T00:58:18.745Z,0
2016-11-10T00:59:18.704Z,0
2016-11-10T01:00:18.678Z,0
2016-11-10T01:01:18.668Z,0
2016-11-10T01:02:18.619Z,0
2016-11-10T01:03:18.595Z,0
2016-11-10T01:04:18.561Z,0
2016-11-10T01:05:18.874Z,0
2016-11-10T01:06:18.577Z,0
2016-11-10T01:07:18.518Z,0
2016-11-10T01:08:18.519Z,0
2016-11-10T01:09:18.466Z,0
2016-11-10T01:10:18.449Z,0
2016-11-10T01:11:18.430Z,0
2016-11-10T01:12:18.405Z,0
2016-11-10T01:13:18.350Z,0
2016-11-10T01:14:18.351Z,0
2016-11-10T01:15:18.328Z,0
2016-11-10T01:16:18.311Z,0
2016-11-10T01:17:18.307Z,0
2016-11-10T01:18:18.255Z,0
2016-11-10T01:19:18.239Z,0
2016-11-10T01:20:18.198Z,0
2016-11-10T01:21:18.176Z,0
2016-11-10T01:22:18.156Z,0
2016-11-10T01:23:18.151Z,0
2016-11-10T01:24:18.128Z,0
2016-11-10T01:25:18.087Z,0
2016-11-10T01:26:18.079Z,0
2016-11-10T01:27:18.041Z,0
2016-11-10T01:28:18.045Z,0
2016-11-10T01:29:18.005Z,0
2016-11-10T01:30:18.002Z,0
2016-11-10T01:31:17.965Z,0
2016-11-10T01:32:17.988Z,0
2016-11-10T01:33:17.897Z,0
2016-11-10T01:34:17.906Z,0
2016-11-10T01:35:17.884Z,0
2016-11-10T01:36:17.822Z,0
2016-11-10T01:37:17.808Z,0
2016-11-10T01:38:17.778Z,0
2016-11-10T01:39:17.789Z,0
2016-11-10T01:40:17.743Z,0
2016-11-10T01:41:17.694Z,0
2016-11-10T01:42:17.696Z,0
2016-11-10T01:43:17.662Z,0
2016-11-10T01:44:17.637Z,0
2016-11-10T01:45:17.623Z,0
2016-11-10T01:46:17.628Z,0
2016-11-10T01:47:17.561Z,0
2016-11-10T01:48:17.524Z,0
2016-11-10T01:49:17.540Z,0
2016-11-10T01:50:17.515Z,0
2016-11-10T01:51:17.480Z,0
2016-11-10T01:52:17.461Z,0
2016-11-10T01:53:17.463Z,0
2016-11-10T01:54:17.398Z,0
2016-11-10T01:55:17.400Z,0
2016-11-10T01:56:17.335Z,0
2016-11-10T01:57:17.415Z,0
2016-11-10T01:58:17.364Z,0
2016-11-10T01:59:17.337Z,0
2016-11-10T02:00:17.250Z,0
2016-11-10T02:01:17.251Z,0
2016-11-10T02:02:17.538Z,0
2016-11-10T02:03:17.187Z,0
2016-11-10T02:04:17.160Z,0
2016-11-10T02:05:17.184Z,0
2016-11-10T02:06:17.152Z,0
2016-11-10T02:07:17.092Z,0
2016-11-10T02:08:17.071Z,0
2016-11-10T02:09:17.053Z,0
2016-11-10T02:10:17.004Z,0
2016-11-10T02:11:17.007Z,0
2016-11-10T02:12:16.976Z,0
2016-11-10T02:13:16.962Z,0
2016-11-10T02:14:16.941Z,0
2016-11-10T02:15:16.936Z,0
2016-11-10T02:16:16.864Z,0
2016-11-10T02:17:16.867Z,0
2016-11-10T02:18:16.836Z,0
2016-11-10T02:19:16.814Z,0
2016-11-10T02:20:16.797Z,0
2016-11-10T02:21:16.764Z,0
2016-11-10T02:22:16.770Z,0
2016-11-10T02:23:16.735Z,0
2016-11-10T02:24:16.723Z,0
2016-11-10T02:25:16.679Z,0
2016-11-10T02:26:16.654Z,0
2016-11-10T02:27:16.980Z,0
2016-11-10T02:28:16.599Z,0
2016-11-10T02:29:16.574Z,0
2016-11-10T02:30:16.586Z,0
2016-11-10T02:31:16.565Z,0
2016-11-10T02:32:16.511Z,0
2016-11-10T02:33:16.479Z,0
2016-11-10T02:34:16.473Z,0
2016-11-10T02:35:16.478Z,0
2016-11-10T02:36:16.412Z,0
2016-11-10T02:37:16.402Z,0
2016-11-10T02:38:16.704Z,0
2016-11-10T02:39:16.334Z,0
2016-11-10T02:40:16.323Z,0
2016-11-10T02:41:16.293Z,0
2016-11-10T02:42:16.281Z,0
2016-11-10T02:43:16.238Z,0
2016-11-10T02:44:16.230Z,0
2016-11-10T02:45:16.194Z,0
2016-11-10T02:46:16.197Z,0
2016-11-10T02:47:16.169Z,0
2016-11-10T02:48:16.127Z,0
2016-11-10T02:49:16.431Z,0
2016-11-10T02:50:16.072Z,0
2016-11-10T02:51:16.081Z,0
2016-11-10T02:52:16.038Z,0
2016-11-10T02:53:16.316Z,0
2016-11-10T02:54:15.991Z,0
2016-11-10T02:55:15.978Z,0
2016-11-10T02:56:15.948Z,0
2016-11-10T02:57:15.894Z,0
2016-11-10T02:58:15.893Z,0
2016-11-10T02:59:15.902Z,0
2016-11-10T03:00:15.856Z,0
2016-11-10T03:01:15.815Z,0
2016-11-10T03:02:15.771Z,0
2016-11-10T03:03:16.088Z,0
2016-11-10T03:04:15.752Z,0
2016-11-10T03:05:15.702Z,0
2016-11-10T03:06:15.719Z,0
2016-11-10T03:07:15.682Z,0
2016-11-10T03:08:15.683Z,0
2016-11-10T03:09:15.638Z,0
2016-11-10T03:10:15.602Z,0
2016-11-10T03:11:15.588Z,0
2016-11-10T03:12:15.543Z,0
2016-11-10T03:13:15.522Z,0
2016-11-10T03:14:15.509Z,0
2016-11-10T03:15:15.491Z,0
2016-11-10T03:16:15.455Z,0
2016-11-10T03:17:15.430Z,0
2016-11-10T03:18:15.422Z,0
2016-11-10T03:19:15.388Z,0
2016-11-10T03:20:15.359Z,0
2016-11-10T03:21:15.356Z,0
2016-11-10T03:22:15.600Z,0
2016-11-10T03:23:15.305Z,0
2016-11-10T03:24:15.265Z,0
2016-11-10T03:25:15.256Z,0
2016-11-10T03:26:15.225Z,0
2016-11-10T03:27:15.216Z,0
2016-11-10T03:28:15.157Z,0
2016-11-10T03:29:15.147Z,0
2016-11-10T03:30:15.124Z,0
2016-11-10T03:31:15.127Z,0
2016-11-10T03:32:15.376Z,0
2016-11-10T03:33:15.090Z,0
2016-11-10T03:34:15.034Z,0
2016-11-10T03:35:15.028Z,0
2016-11-10T03:36:15.004Z,0
2016-11-10T03:37:14.964Z,0
2016-11-10T03:38:14.972Z,0
2016-11-10T03:39:14.938Z,0
2016-11-10T03:40:14.892Z,0
2016-11-10T03:41:14.889Z,0
2016-11-10T03:42:14.852Z,0
2016-11-10T03:43:14.848Z,0
2016-11-10T03:44:15.000Z,0
2016-11-10T03:45:14.770Z,0
2016-11-10T03:46:14.743Z,0
2016-11-10T03:47:14.718Z,0
2016-11-10T03:48:14.757Z,0
2016-11-10T03:49:14.683Z,0
2016-11-10T03:50:14.677Z,0
2016-11-10T03:51:14.657Z,0
2016-11-10T03:52:14.622Z,0
2016-11-10T03:53:14.589Z,0
2016-11-10T03:54:14.577Z,0
2016-11-10T03:55:14.538Z,0
2016-11-10T03:56:14.533Z,0
2016-11-10T03:57:14.515Z,0
2016-11-10T03:58:14.499Z,0
2016-11-10T03:59:14.801Z,0
2016-11-10T04:00:14.766Z,0
2016-11-10T04:01:14.426Z,0
2016-11-10T04:02:14.391Z,0
2016-11-10T04:03:14.380Z,0
2016-11-10T04:04:14.345Z,0
2016-11-10T04:05:14.319Z,0
2016-11-10T04:06:14.313Z,0
2016-11-10T04:07:14.262Z,0
2016-11-10T04:08:14.221Z,0
2016-11-10T04:09:14.238Z,0
2016-11-10T04:10:14.191Z,0
2016-11-10T04:11:14.180Z,0
2016-11-10T04:12:14.168Z,0
2016-11-10T04:13:14.137Z,0
2016-11-10T04:14:14.083Z,0
2016-11-10T04:15:14.098Z,0
2016-11-10T04:16:14.074Z,0
2016-11-10T04:17:14.033Z,0
2016-11-10T04:18:13.993Z,0
2016-11-10T04:19:13.994Z,0
2016-11-10T04:20:13.972Z,0
2016-11-10T04:21:13.943Z,0
2016-11-10T04:22:13.947Z,0
2016-11-10T04:23:13.892Z,0
2016-11-10T04:24:13.878Z,0
2016-11-10T04:25:13.858Z,0
2016-11-10T04:26:13.838Z,0
2016-11-10T04:27:13.803Z,0
2016-11-10T04:28:13.792Z,0
2016-11-10T04:29:13.773Z,0
2016-11-10T04:30:13.760Z,0
2016-11-10T04:31:13.706Z,0
2016-11-10T04:32:13.663Z,0
2016-11-10T04:33:13.668Z,0
2016-11-10T04:34:13.655Z,0
2016-11-10T04:35:13.621Z,0
2016-11-10T04:36:13.591Z,0
2016-11-10T04:37:13.581Z,0
2016-11-10T04:38:13.551Z,0
2016-11-10T04:39:13.546Z,0
2016-11-10T04:40:13.497Z,0
2016-11-10T04:41:13.490Z,0
2016-11-10T04:42:13.461Z,0
2016-11-10T04:43:13.454Z,0
2016-11-10T04:44:13.417Z,0
2016-11-10T04:45:13.404Z,0
2016-11-10T04:46:13.356Z,0
2016-11-10T04:47:13.326Z,0
2016-11-10T04:48:13.313Z,0
2016-11-10T04:49:13.294Z,0
2016-11-10T04:50:13.288Z,0
2016-11-10T04:51:13.251Z,0
2016-11-10T04:52:13.228Z,0
2016-11-10T04:53:13.193Z,0
2016-11-10T04:54:13.183Z,0
2016-11-10T04:55:13.136Z,0
2016-11-10T04:56:13.134Z,0
2016-11-10T04:57:13.095Z,0
2016-11-10T04:58:13.096Z,0
2016-11-10T04:59:13.045Z,0
2016-11-10T05:00:13.007Z,0
2016-11-10T05:01:13.012Z,0
2016-11-10T05:02:12.999Z,0
2016-11-10T05:03:12.956Z,0
2016-11-10T05:04:12.943Z,0
2016-11-10T05:05:12.919Z,0
2016-11-10T05:06:12.911Z,0
2016-11-10T05:07:12.858Z,0
2016-11-10T05:08:12.832Z,0
2016-11-10T05:09:12.822Z,0
2016-11-10T05:10:12.786Z,0
2016-11-10T05:11:12.779Z,0
2016-11-10T05:12:12.778Z,0
2016-11-10T05:13:12.735Z,0
2016-11-10T05:14:12.710Z,0
2016-11-10T05:15:12.509Z,0
2016-11-10T05:16:12.664Z,0
2016-11-10T05:17:12.628Z,0
2016-11-10T05:18:12.609Z,0
2016-11-10T05:19:12.578Z,0
2016-11-10T05:20:12.572Z,0
2016-11-10T05:21:12.554Z,0
2016-11-10T05:22:12.509Z,0
2016-11-10T05:23:12.507Z,0
2016-11-10T05:24:12.471Z,0
2016-11-10T05:25:12.462Z,0
2016-11-10T05:26:12.449Z,0
2016-11-10T05:27:12.421Z,0
2016-11-10T05:28:12.425Z,0
2016-11-10T05:29:12.353Z,0
2016-11-10T05:30:12.325Z,0
2016-11-10T05:31:12.301Z,0
2016-11-10T05:32:12.265Z,0
2016-11-10T05:33:12.276Z,0
2016-11-10T05:34:12.219Z,0
2016-11-10T05:35:12.188Z,0
2016-11-10T05:36:12.212Z,0
2016-11-10T05:37:12.184Z,0
2016-11-10T05:38:12.155Z,0
2016-11-10T05:39:12.135Z,0
2016-11-10T05:40:12.106Z,0
2016-11-10T05:41:12.080Z,0
2016-11-10T05:42:12.057Z,0
2016-11-10T05:43:12.061Z,4
2016-11-10T05:44:12.030Z,4
2016-11-10T05:45:11.988Z,4
2016-11-10T05:46:11.970Z,0
2016-11-10T05:47:11.943Z,4
2016-11-10T05:48:11.895Z,8
2016-11-10T05:49:11.883Z,4
2016-11-10T05:50:11.870Z,8
2016-11-10T05:51:11.850Z,8
2016-11-10T05:52:11.831Z,12
2016-11-10T05:53:11.781Z,16
2016-11-10T05:54:11.784Z,20
2016-11-10T05:55:11.754Z,20
2016-11-10T05:56:11.755Z,20
2016-11-10T05:57:11.711Z,28
2016-11-10T05:58:11.704Z,36
2016-11-10T05:59:11.662Z,40
2016-11-10T06:00:11.640Z,48
2016-11-10T06:01:11.594Z,52
2016-11-10T06:02:11.603Z,56
2016-11-10T06:03:11.566Z,64
2016-11-10T06:04:11.531Z,84
2016-11-10T06:05:11.530Z,92
2016-11-10T06:06:11.505Z,96
2016-11-10T06:07:11.460Z,96
2016-11-10T06:08:11.440Z,104
2016-11-10T06:09:11.749Z,116
2016-11-10T06:10:11.407Z,128
2016-11-10T06:11:11.406Z,140
2016-11-10T06:12:11.366Z,152
2016-11-10T06:13:11.307Z,172
2016-11-10T06:14:11.332Z,184
2016-11-10T06:15:11.287Z,204
2016-11-10T06:16:11.248Z,220
2016-11-10T06:17:11.225Z,244
2016-11-10T06:18:11.231Z,292
2016-11-10T06:19:11.168Z,324
2016-11-10T06:20:11.177Z,376
2016-11-10T06:21:11.163Z,420
2016-11-10T06:22:11.116Z,456
2016-11-10T06:23:11.103Z,480
2016-11-10T06:24:11.074Z,504
2016-11-10T06:25:11.056Z,508
2016-11-10T06:26:11.028Z,532
2016-11-10T06:27:10.990Z,584
2016-11-10T06:28:11.012Z,600
2016-11-10T06:29:10.984Z,616
2016-11-10T06:30:10.943Z,640
2016-11-10T06:31:10.923Z,628
2016-11-10T06:32:10.898Z,656
2016-11-10T06:33:10.875Z,744
2016-11-10T06:34:10.858Z,752
2016-11-10T06:35:10.822Z,844
2016-11-10T06:36:11.118Z,912
2016-11-10T06:37:10.776Z,1140
2016-11-10T06:38:10.929Z,1652
2016-11-10T06:39:10.936Z,2108
2016-11-10T06:40:10.707Z,2316
2016-11-10T06:41:10.684Z,2236
2016-11-10T06:42:10.646Z,1996
2016-11-10T06:43:10.644Z,1652
2016-11-10T06:44:10.621Z,1404
2016-11-10T06:45:10.606Z,1328
2016-11-10T06:46:10.548Z,1484
2016-11-10T06:47:10.531Z,1636
2016-11-10T06:48:10.504Z,1708
2016-11-10T06:49:10.535Z,1908
2016-11-10T06:50:10.491Z,2200
2016-11-10T06:51:10.423Z,2684
2016-11-10T06:52:10.432Z,3356
2016-11-10T06:53:10.405Z,3808
2016-11-10T06:54:10.384Z,4364
2016-11-10T06:55:10.350Z,4696
2016-11-10T06:56:10.318Z,5128
2016-11-10T06:57:10.326Z,5944
2016-11-10T06:58:10.295Z,6912
2016-11-10T06:59:10.278Z,6404
2016-11-10T07:00:10.251Z,5828
2016-11-10T07:01:10.215Z,5920
2016-11-10T07:02:10.750Z,6192
2016-11-10T07:03:10.167Z,5868
2016-11-10T07:04:10.158Z,4804
2016-11-10T07:05:10.310Z,4124
2016-11-10T07:06:10.928Z,3580
2016-11-10T07:07:10.069Z,3344
2016-11-10T07:08:10.073Z,3424
2016-11-10T07:09:10.047Z,3856
2016-11-10T07:10:10.009Z,4420
2016-11-10T07:11:09.985Z,4820
2016-11-10T07:12:09.958Z,5148
2016-11-10T07:13:09.924Z,5324
2016-11-10T07:14:09.931Z,5912
2016-11-10T07:15:09.887Z,6404
2016-11-10T07:16:09.891Z,6244
2016-11-10T07:17:09.894Z,6500
2016-11-10T07:18:09.841Z,6916
2016-11-10T07:19:09.810Z,6872
2016-11-10T07:20:09.796Z,6968
2016-11-10T07:21:09.759Z,6364
2016-11-10T07:22:09.732Z,6148
2016-11-10T07:23:09.694Z,6024
2016-11-10T07:24:09.702Z,5512
2016-11-10T07:25:09.689Z,5308
2016-11-10T07:26:09.680Z,5416
2016-11-10T07:27:09.655Z,5752
2016-11-10T07:28:09.581Z,6140
2016-11-10T07:29:09.571Z,7004
2016-11-10T07:30:09.572Z,7692
2016-11-10T07:31:09.764Z,7424
2016-11-10T07:32:09.706Z,7036
2016-11-10T07:33:09.707Z,6680
2016-11-10T07:34:09.465Z,6916
2016-11-10T07:35:09.425Z,6992
2016-11-10T07:36:09.409Z,6576
2016-11-10T07:37:09.410Z,6272
2016-11-10T07:38:09.367Z,6012
2016-11-10T07:39:09.355Z,5864
2016-11-10T07:40:09.318Z,5604
2016-11-10T07:41:09.302Z,5964
2016-11-10T07:42:09.286Z,6572
2016-11-10T07:43:09.235Z,6564
2016-11-10T07:44:09.563Z,6016
2016-11-10T07:45:09.206Z,5492
2016-11-10T07:46:09.192Z,5452
2016-11-10T07:47:09.158Z,4964
2016-11-10T07:48:09.144Z,5496
2016-11-10T07:49:09.130Z,5900
2016-11-10T07:50:09.098Z,6332
2016-11-10T07:51:09.071Z,6792
2016-11-10T07:52:09.104Z,7356
2016-11-10T07:53:09.024Z,7840
2016-11-10T07:54:09.404Z,7588
2016-11-10T07:55:08.971Z,7580
2016-11-10T07:56:08.965Z,7108
2016-11-10T07:57:09.270Z,6592
2016-11-10T07:58:08.908Z,6400
2016-11-10T07:59:09.103Z,6368
2016-11-10T08:00:09.072Z,6428
2016-11-10T08:01:08.831Z,6200
2016-11-10T08:02:08.828Z,6148
2016-11-10T08:03:08.812Z,6500
2016-11-10T08:04:08.782Z,6600
2016-11-10T08:05:08.773Z,6120
2016-11-10T08:06:08.761Z,6860
2016-11-10T08:07:08.699Z,7420
2016-11-10T08:08:08.668Z,8256
2016-11-10T08:09:08.660Z,9560
2016-11-10T08:10:08.644Z,10328
2016-11-10T08:11:08.625Z,11284
2016-11-10T08:12:08.620Z,12100
2016-11-10T08:13:08.576Z,14220
2016-11-10T08:14:08.539Z,15440
2016-11-10T08:15:08.511Z,17536
2016-11-10T08:16:08.501Z,14212
2016-11-10T08:17:08.462Z,14928
2016-11-10T08:18:08.477Z,17084
2016-11-10T08:19:08.438Z,21088
2016-11-10T08:20:08.403Z,15548
2016-11-10T08:21:08.400Z,16528
2016-11-10T08:22:08.352Z,22240
2016-11-10T08:23:08.348Z,17984
2016-11-10T08:24:08.316Z,13164
2016-11-10T08:25:08.299Z,10832
2016-11-10T08:26:08.466Z,9508
2016-11-10T08:27:08.476Z,9132
2016-11-10T08:28:08.219Z,9544
2016-11-10T08:29:08.209Z,10560
2016-11-10T08:30:08.171Z,10624
2016-11-10T08:31:08.172Z,9420
2016-11-10T08:32:08.109Z,8792
2016-11-10T08:33:08.077Z,8072
2016-11-10T08:34:08.088Z,7140
2016-11-10T08:35:08.057Z,6484
2016-11-10T08:36:08.061Z,7016
2016-11-10T08:37:08.019Z,8348
2016-11-10T08:38:07.982Z,9692
2016-11-10T08:39:07.967Z,11704
2016-11-10T08:40:07.933Z,14160
2016-11-10T08:41:07.923Z,18208
2016-11-10T08:42:07.926Z,22016
2016-11-10T08:43:07.874Z,26336
2016-11-10T08:44:07.823Z,32320
2016-11-10T08:45:07.824Z,31360
2016-11-10T08:46:07.813Z,31776
2016-11-10T08:47:07.789Z,30336
2016-11-10T08:48:07.769Z,28672
2016-11-10T08:49:07.715Z,24640
2016-11-10T08:50:07.735Z,22016
2016-11-10T08:51:07.702Z,21248
2016-11-10T08:52:07.676Z,21504
2016-11-10T08:53:07.854Z,26368
2016-11-10T08:54:07.858Z,32352
2016-11-10T08:55:07.607Z,28992
2016-11-10T08:56:07.608Z,23552
2016-11-10T08:57:07.534Z,19008
2016-11-10T08:58:07.544Z,17280
2016-11-10T08:59:07.512Z,17336
2016-11-10T09:00:07.494Z,16268
2016-11-10T09:01:07.472Z,13772
2016-11-10T09:02:07.446Z,13980
2016-11-10T09:03:07.422Z,14536
2016-11-10T09:04:07.399Z,16848
2016-11-10T09:05:07.382Z,22912
2016-11-10T09:06:07.344Z,26432
2016-11-10T09:07:07.309Z,25248
2016-11-10T09:08:07.349Z,21600
2016-11-10T09:09:07.293Z,19808
2016-11-10T09:10:07.290Z,19264
2016-11-10T09:11:07.246Z,19936
2016-11-10T09:12:07.197Z,20224
2016-11-10T09:13:07.169Z,19232
2016-11-10T09:14:07.171Z,18336
2016-11-10T09:15:07.154Z,19392
2016-11-10T09:16:07.126Z,24320
2016-11-10T09:17:07.107Z,30656
2016-11-10T09:18:07.087Z,31712
2016-11-10T09:19:07.236Z,29824
2016-11-10T09:20:07.048Z,29184
2016-11-10T09:21:07.002Z,28512
2016-11-10T09:22:06.998Z,28320
2016-11-10T09:23:06.974Z,30112
2016-11-10T09:24:06.968Z,30816
2016-11-10T09:25:06.943Z,29120
2016-11-10T09:26:06.899Z,26976
2016-11-10T09:27:06.857Z,25696
2016-11-10T09:28:06.831Z,24032
2016-11-10T09:29:06.816Z,24480
2016-11-10T09:30:06.802Z,23008
2016-11-10T09:31:06.787Z,22432
2016-11-10T09:32:06.772Z,22752
2016-11-10T09:33:06.746Z,23776
2016-11-10T09:34:06.736Z,23360
2016-11-10T09:35:06.689Z,22688
2016-11-10T09:36:06.674Z,22592
2016-11-10T09:37:06.661Z,21984
2016-11-10T09:38:06.608Z,21120
2016-11-10T09:39:06.619Z,20544
2016-11-10T09:40:06.904Z,19904
2016-11-10T09:41:06.555Z,19520
2016-11-10T09:42:06.501Z,18212
2016-11-10T09:43:06.508Z,18496
2016-11-10T09:44:06.482Z,19392
2016-11-10T09:45:06.452Z,19008
2016-11-10T09:46:06.415Z,18252
2016-11-10T09:47:06.386Z,17584
2016-11-10T09:48:06.379Z,16912
2016-11-10T09:49:06.346Z,16256
2016-11-10T09:50:06.663Z,17184
2016-11-10T09:51:06.296Z,17480
2016-11-10T09:52:06.300Z,18108
2016-11-10T09:53:06.266Z,21312
2016-11-10T09:54:06.247Z,23680
2016-11-10T09:55:06.252Z,21952
2016-11-10T09:56:06.211Z,21056
2016-11-10T09:57:06.168Z,21760
2016-11-10T09:58:06.142Z,22016
2016-11-10T09:59:06.123Z,24320
2016-11-10T10:00:06.092Z,27552
2016-11-10T10:01:06.056Z,32736
2016-11-10T10:02:06.051Z,38592
2016-11-10T10:03:06.036Z,43168
2016-11-10T10:04:06.023Z,43648
2016-11-10T10:05:05.995Z,45056
2016-11-10T10:06:05.964Z,43904
2016-11-10T10:07:06.153Z,41664
2016-11-10T10:08:05.919Z,42016
2016-11-10T10:09:05.895Z,36992
2016-11-10T10:10:05.860Z,40416
2016-11-10T10:11:05.845Z,43040
2016-11-10T10:12:05.834Z,40384
2016-11-10T10:13:05.800Z,32800
2016-11-10T10:14:05.782Z,33152
2016-11-10T10:15:05.757Z,35968
2016-11-10T10:16:05.757Z,37248
2016-11-10T10:17:05.718Z,39200
2016-11-10T10:18:05.678Z,42592
2016-11-10T10:19:05.656Z,49120
2016-11-10T10:20:05.629Z,45472
2016-11-10T10:21:05.597Z,43072
2016-11-10T10:22:05.594Z,42912
2016-11-10T10:23:05.582Z,40160
2016-11-10T10:24:05.571Z,39776
2016-11-10T10:25:05.541Z,37440
2016-11-10T10:26:05.506Z,40128
2016-11-10T10:27:05.467Z,41984
2016-11-10T10:28:05.476Z,39584
2016-11-10T10:29:05.454Z,40448
2016-11-10T10:30:05.429Z,47040
2016-11-10T10:31:05.396Z,46912
2016-11-10T10:32:05.398Z,36896
2016-11-10T10:33:05.680Z,31552
2016-11-10T10:34:05.318Z,33024
2016-11-10T10:35:05.299Z,38976
2016-11-10T10:36:05.279Z,40256
2016-11-10T10:37:05.258Z,35040
2016-11-10T10:38:05.250Z,30144
2016-11-10T10:39:05.504Z,28736
2016-11-10T10:40:05.187Z,29120
2016-11-10T10:41:05.183Z,30720
2016-11-10T10:42:05.149Z,35232
2016-11-10T10:43:05.113Z,38528
2016-11-10T10:44:05.163Z,45088
2016-11-10T10:45:05.096Z,50592
2016-11-10T10:46:05.054Z,44928
2016-11-10T10:47:05.049Z,43328
2016-11-10T10:48:05.013Z,42240
2016-11-10T10:49:04.990Z,45760
2016-11-10T10:50:04.960Z,40832
2016-11-10T10:51:04.962Z,41024
2016-11-10T10:52:04.905Z,41056
2016-11-10T10:53:04.903Z,38912
2016-11-10T10:54:04.905Z,36032
2016-11-10T10:55:04.857Z,36320
2016-11-10T10:56:04.813Z,36480
2016-11-10T10:57:04.817Z,34592
2016-11-10T10:58:04.789Z,30816
2016-11-10T10:59:04.816Z,29280
2016-11-10T11:00:04.750Z,30464
2016-11-10T11:01:04.717Z,31680
2016-11-10T11:02:04.752Z,39808
2016-11-10T11:03:04.688Z,34176
2016-11-10T11:04:04.683Z,28736
2016-11-10T11:05:04.649Z,26752
2016-11-10T11:06:04.621Z,28032
2016-11-10T11:07:04.898Z,29408
2016-11-10T11:08:04.623Z,27648
2016-11-10T11:09:04.852Z,23648
2016-11-10T11:10:04.524Z,21792
2016-11-10T11:11:04.494Z,21920
2016-11-10T11:12:04.494Z,23200
2016-11-10T11:13:04.578Z,28704
2016-11-10T11:14:04.436Z,31040
2016-11-10T11:15:04.414Z,32064
2016-11-10T11:16:04.384Z,32928
2016-11-10T11:17:04.358Z,29664
2016-11-10T11:18:04.344Z,28864
2016-11-10T11:19:04.317Z,25632
2016-11-10T11:20:04.300Z,23744
2016-11-10T11:21:04.283Z,23392
2016-11-10T11:22:04.278Z,22144
2016-11-10T11:23:04.253Z,19296
2016-11-10T11:24:04.241Z,15728
2016-11-10T11:25:04.227Z,13332
2016-11-10T11:26:04.172Z,11484
2016-11-10T11:27:04.145Z,13208
2016-11-10T11:28:04.153Z,28192
2016-11-10T11:29:04.145Z,27808
2016-11-10T11:30:04.403Z,27392
2016-11-10T11:31:04.076Z,45824
2016-11-10T11:32:04.039Z,38592
2016-11-10T11:33:04.052Z,38880
2016-11-10T11:34:04.007Z,31808
2016-11-10T11:35:03.996Z,30816
2016-11-10T11:36:03.951Z,26208
2016-11-10T11:37:03.947Z,26880
2016-11-10T11:38:03.914Z,28160
2016-11-10T11:39:03.886Z,29280
2016-11-10T11:40:04.206Z,32416
2016-11-10T11:41:03.858Z,25664
2016-11-10T11:42:03.823Z,22688
2016-11-10T11:43:03.794Z,31712
2016-11-10T11:44:03.790Z,17084
2016-11-10T11:45:03.754Z,15996
2016-11-10T11:46:03.758Z,16244
2016-11-10T11:47:03.721Z,20768
2016-11-10T11:48:03.718Z,21376
2016-11-10T11:49:03.726Z,27616
2016-11-10T11:50:03.633Z,24128
2016-11-10T11:51:03.623Z,20288
2016-11-10T11:52:04.022Z,28032
2016-11-10T11:53:03.566Z,31904
2016-11-10T11:54:03.539Z,32064
2016-11-10T11:55:03.563Z,30688
2016-11-10T11:56:03.516Z,37792
2016-11-10T11:57:03.500Z,30592
2016-11-10T11:58:03.462Z,22240
2016-11-10T11:59:03.453Z,27136
2016-11-10T12:00:03.766Z,26528
2016-11-10T12:01:03.410Z,23552
2016-11-10T12:02:03.404Z,22272
2016-11-10T12:03:03.373Z,15300
2016-11-10T12:04:03.344Z,22304
2016-11-10T12:05:03.661Z,23648
2016-11-10T12:06:03.297Z,19872
2016-11-10T12:07:03.289Z,15384
2016-11-10T12:08:03.249Z,21280
2016-11-10T12:09:03.214Z,19072
2016-11-10T12:10:03.215Z,20128
2016-11-10T12:11:03.180Z,15748
2016-11-10T12:12:03.160Z,20608
2016-11-10T12:13:03.130Z,19936
2016-11-10T12:14:03.113Z,19552
2016-11-10T12:15:03.124Z,20992
2016-11-10T12:16:03.068Z,20896
2016-11-10T12:17:03.051Z,31776
2016-11-10T12:18:03.032Z,20960
2016-11-10T12:19:02.995Z,20256
2016-11-10T12:20:02.952Z,23136
2016-11-10T12:21:02.958Z,25312
2016-11-10T12:22:02.941Z,24896
2016-11-10T12:23:02.921Z,24064
2016-11-10T12:24:02.879Z,23680
2016-11-10T12:25:02.866Z,24416
2016-11-10T12:26:02.831Z,18432
2016-11-10T12:27:02.832Z,21792
2016-11-10T12:28:02.844Z,23968
2016-11-10T12:29:02.757Z,21280
2016-11-10T12:30:02.726Z,19840
2016-11-10T12:31:02.724Z,20032
2016-11-10T12:32:02.702Z,17152
2016-11-10T12:33:02.670Z,20288
2016-11-10T12:34:02.674Z,19424
2016-11-10T12:35:02.603Z,16076
2016-11-10T12:36:02.617Z,13156
2016-11-10T12:37:02.569Z,13568
2016-11-10T12:38:02.570Z,15024
2016-11-10T12:39:02.536Z,18720
2016-11-10T12:40:02.529Z,18368
2016-11-10T12:41:02.506Z,13444
2016-11-10T12:42:02.464Z,12632
2016-11-10T12:43:02.441Z,14560
2016-11-10T12:44:02.423Z,13200
2016-11-10T12:45:02.387Z,10816
2016-11-10T12:46:02.381Z,13048
2016-11-10T12:47:02.364Z,15780
2016-11-10T12:48:02.346Z,13928
2016-11-10T12:49:02.306Z,16784
2016-11-10T12:50:02.293Z,20960
2016-11-10T12:51:02.276Z,21056
2016-11-10T12:52:02.255Z,20736
2016-11-10T12:53:02.217Z,22080
2016-11-10T12:54:02.190Z,20960
2016-11-10T12:55:02.154Z,16588
2016-11-10T12:56:02.140Z,18144
2016-11-10T12:57:02.141Z,18624
2016-11-10T12:58:02.098Z,15772
2016-11-10T12:59:02.077Z,16576
2016-11-10T13:00:02.055Z,18560
2016-11-10T13:01:02.015Z,19680
2016-11-10T13:02:02.330Z,20704
2016-11-10T13:03:01.978Z,18880
2016-11-10T13:04:01.963Z,18976
2016-11-10T13:05:01.903Z,20320
2016-11-10T13:06:01.905Z,22080
2016-11-10T13:07:02.204Z,24704
2016-11-10T13:08:01.871Z,29664
2016-11-10T13:09:01.894Z,29344
2016-11-10T13:10:01.813Z,25440
2016-11-10T13:11:01.779Z,23264
2016-11-10T13:12:01.765Z,21920
2016-11-10T13:13:01.768Z,21280
2016-11-10T13:14:01.696Z,22624
2016-11-10T13:15:01.691Z,23904
2016-11-10T13:16:01.695Z,24384
2016-11-10T13:17:01.656Z,24032
2016-11-10T13:18:01.631Z,20544
2016-11-10T13:19:01.637Z,24096
2016-11-10T13:20:01.587Z,23296
2016-11-10T13:21:01.560Z,21472
2016-11-10T13:22:01.566Z,21344
2016-11-10T13:23:01.521Z,26272
2016-11-10T13:24:01.502Z,26048
2016-11-10T13:25:01.473Z,20608
2016-11-10T13:26:01.475Z,18848
2016-11-10T13:27:01.466Z,21568
2016-11-10T13:28:01.400Z,21728
2016-11-10T13:29:01.368Z,21344
2016-11-10T13:30:01.342Z,18816
2016-11-10T13:31:01.347Z,18272
2016-11-10T13:32:01.289Z,18976
2016-11-10T13:33:01.291Z,16864
2016-11-10T13:34:01.288Z,17984
2016-11-10T13:35:01.228Z,15752
2016-11-10T13:36:01.194Z,16436
2016-11-10T13:37:01.198Z,16036
2016-11-10T13:38:01.163Z,15464
2016-11-10T13:39:01.169Z,13464
2016-11-10T13:40:01.138Z,14964
2016-11-10T13:41:01.298Z,15436
2016-11-10T13:42:01.091Z,14904
2016-11-10T13:43:01.069Z,14608
2016-11-10T13:44:01.021Z,15852